Devizes, United Kingdom
Current Conditions -  °F | °C
As of 5:50 PM on Tuesday 21 Oct 2014 (Local Time) from EGDM Reporting Station
Few Clouds Few Clouds  
Wind Chill: 50°   Ceiling: Unl
Heat Index: 50°   Visibility: 6mi
Dew Point: 39°   Wind: 23mph
Humidity: 66%   Direction: 290°WNW
Pressure: 29.97"   Gusts: NA
Location:  51.35°N, 1.99°W
Report Text: EGDM 211650Z 29020KT 9999 FEW040 10/04 Q1015 BLU
Loading
Personal Weather Stations






























Interactive Weather Map
Tropical Storm Tracking
New forecast layout! Learn more

10-Day Weather Forecast

Advertisements
Track Severe Weather on mobile